BVR114 LFLL-EKCH
Flight info
| Callsign | BVR114 |
|---|---|
| Flight time | 1h 47m |
| Altitude | 36000 |
| Route | MOKIP DCT LUSAR DCT MOPAN DCT LOHRE N746 KENIG M726 ROSOK Q296 MONAK |
| Aircraft | B38M/M-SDE1FGHILORVWXY/HB1 |
Departure
| Time | 2026-04-23 07:45 |
|---|---|
| Airport | Lyon Saint-Exupéry Airport (LFLL) |
Arrival
| Time | 2026-04-23 09:32 |
|---|---|
| Airport | Copenhagen Kastrup Airport (EKCH) |
| Time | Latitude | Longitude | Altitude | Speed | Heading |
|---|---|---|---|---|---|
| 2026-04-23 07:36 | 45.72144 | 5.08178 | 799 ft | 0 kts | 269° |
| 2026-04-23 07:37 | 45.72145 | 5.08212 | 799 ft | 4 kts | 270° |
| 2026-04-23 07:37 | 45.72144 | 5.08251 | 799 ft | 4 kts | 269° |
| 2026-04-23 07:37 | 45.72147 | 5.08288 | 800 ft | 4 kts | 248° |
| 2026-04-23 07:38 | 45.72162 | 5.08315 | 801 ft | 4 kts | 203° |
| 2026-04-23 07:38 | 45.72171 | 5.08320 | 801 ft | 0 kts | 198° |
| 2026-04-23 07:41 | 45.72164 | 5.08317 | 801 ft | 2 kts | 198° |
| 2026-04-23 07:41 | 45.72150 | 5.08310 | 801 ft | 4 kts | 198° |
| 2026-04-23 07:41 | 45.72106 | 5.08289 | 800 ft | 9 kts | 198° |
| 2026-04-23 07:42 | 45.72031 | 5.08260 | 800 ft | 13 kts | 181° |
| 2026-04-23 07:42 | 45.71965 | 5.08340 | 802 ft | 14 kts | 112° |
| 2026-04-23 07:42 | 45.71873 | 5.08471 | 804 ft | 17 kts | 172° |
| 2026-04-23 07:42 | 45.71791 | 5.08481 | 804 ft | 19 kts | 175° |
| 2026-04-23 07:43 | 45.71648 | 5.08499 | 805 ft | 22 kts | 175° |
| 2026-04-23 07:43 | 45.71485 | 5.08518 | 807 ft | 25 kts | 175° |
| 2026-04-23 07:43 | 45.71318 | 5.08537 | 815 ft | 24 kts | 175° |
| 2026-04-23 07:43 | 45.71149 | 5.08587 | 815 ft | 25 kts | 139° |
| 2026-04-23 07:44 | 45.71085 | 5.08816 | 822 ft | 26 kts | 104° |
| 2026-04-23 07:44 | 45.71135 | 5.09027 | 822 ft | 24 kts | 8° |
| 2026-04-23 07:44 | 45.71212 | 5.09018 | 819 ft | 0 kts | 355° |
| 2026-04-23 07:44 | 45.71268 | 5.09011 | 817 ft | 35 kts | 355° |
| 2026-04-23 07:45 | 45.71758 | 5.08951 | 814 ft | 106 kts | 355° |
| 2026-04-23 07:45 | 45.72707 | 5.08846 | 798 ft | 163 kts | 357° |
| 2026-04-23 07:45 | 45.73880 | 5.08711 | 1208 ft | 179 kts | 357° |
| 2026-04-23 07:45 | 45.75132 | 5.08562 | 1987 ft | 172 kts | 356° |
| 2026-04-23 07:46 | 45.76253 | 5.08416 | 2179 ft | 153 kts | 356° |
| 2026-04-23 07:46 | 45.77306 | 5.08273 | 2154 ft | 166 kts | 356° |
| 2026-04-23 07:46 | 45.78519 | 5.08106 | 2711 ft | 185 kts | 357° |
| 2026-04-23 07:46 | 45.79878 | 5.07946 | 3274 ft | 205 kts | 357° |
| 2026-04-23 07:47 | 45.81371 | 5.07770 | 3814 ft | 230 kts | 357° |
| 2026-04-23 07:47 | 45.83070 | 5.07567 | 4375 ft | 253 kts | 356° |
| 2026-04-23 07:47 | 45.84885 | 5.07347 | 5264 ft | 268 kts | 356° |
| 2026-04-23 07:47 | 45.86764 | 5.07119 | 6171 ft | 275 kts | 357° |
| 2026-04-23 07:48 | 45.88673 | 5.06886 | 7224 ft | 279 kts | 357° |
| 2026-04-23 07:48 | 45.90628 | 5.06647 | 8218 ft | 282 kts | 358° |
| 2026-04-23 07:48 | 45.92570 | 5.06731 | 9241 ft | 282 kts | 9° |
| 2026-04-23 07:48 | 45.94541 | 5.07059 | 10249 ft | 285 kts | 8° |
| 2026-04-23 07:49 | 45.96531 | 5.07372 | 10937 ft | 298 kts | 8° |
| 2026-04-23 07:49 | 45.98669 | 5.07699 | 11374 ft | 319 kts | 8° |
| 2026-04-23 07:49 | 46.00952 | 5.08040 | 11757 ft | 339 kts | 8° |
| 2026-04-23 07:49 | 46.03348 | 5.08396 | 12203 ft | 355 kts | 7° |
| 2026-04-23 07:50 | 46.05870 | 5.08770 | 12842 ft | 364 kts | 8° |
| 2026-04-23 07:50 | 46.08374 | 5.09143 | 13671 ft | 367 kts | 8° |
| 2026-04-23 07:50 | 46.10939 | 5.09525 | 14376 ft | 372 kts | 7° |
| 2026-04-23 07:50 | 46.13530 | 5.09910 | 15100 ft | 375 kts | 7° |
| 2026-04-23 07:51 | 46.16142 | 5.10300 | 15810 ft | 378 kts | 7° |
| 2026-04-23 07:51 | 46.18746 | 5.10688 | 16498 ft | 381 kts | 7° |
| 2026-04-23 07:51 | 46.21401 | 5.11085 | 17184 ft | 384 kts | 7° |
| 2026-04-23 07:51 | 46.24074 | 5.11486 | 17868 ft | 387 kts | 7° |
| 2026-04-23 07:52 | 46.26768 | 5.11889 | 18528 ft | 390 kts | 7° |
| 2026-04-23 07:52 | 46.29468 | 5.12293 | 19050 ft | 394 kts | 7° |
| 2026-04-23 07:52 | 46.32217 | 5.12705 | 19659 ft | 396 kts | 7° |
| 2026-04-23 07:52 | 46.34968 | 5.13119 | 20264 ft | 398 kts | 6° |
| 2026-04-23 07:53 | 46.37703 | 5.13530 | 20836 ft | 400 kts | 6° |
| 2026-04-23 07:53 | 46.40486 | 5.13949 | 21407 ft | 402 kts | 6° |
| 2026-04-23 07:53 | 46.43287 | 5.14371 | 21977 ft | 404 kts | 6° |
| 2026-04-23 07:53 | 46.46100 | 5.14795 | 22536 ft | 406 kts | 6° |
| 2026-04-23 07:54 | 46.48900 | 5.15219 | 22961 ft | 412 kts | 6° |
| 2026-04-23 07:54 | 46.51768 | 5.15653 | 23493 ft | 414 kts | 6° |
| 2026-04-23 07:54 | 46.54647 | 5.16088 | 23989 ft | 417 kts | 6° |
| 2026-04-23 07:54 | 46.57538 | 5.16526 | 24413 ft | 419 kts | 6° |
| 2026-04-23 07:55 | 46.60418 | 5.16963 | 24851 ft | 421 kts | 6° |
| 2026-04-23 07:55 | 46.63336 | 5.17472 | 25265 ft | 423 kts | 11° |
| 2026-04-23 07:55 | 46.66131 | 5.18926 | 25692 ft | 427 kts | 27° |
| 2026-04-23 07:55 | 46.68514 | 5.21477 | 26089 ft | 433 kts | 42° |
| 2026-04-23 07:56 | 46.70541 | 5.24764 | 26465 ft | 437 kts | 47° |
| 2026-04-23 07:56 | 46.72518 | 5.28157 | 26827 ft | 440 kts | 47° |
| 2026-04-23 07:56 | 46.74479 | 5.31595 | 27247 ft | 441 kts | 49° |
| 2026-04-23 07:56 | 46.76412 | 5.35034 | 27640 ft | 443 kts | 50° |
| 2026-04-23 07:57 | 46.78378 | 5.38560 | 27967 ft | 446 kts | 50° |
| 2026-04-23 07:57 | 46.80340 | 5.42093 | 28339 ft | 449 kts | 49° |
| 2026-04-23 07:57 | 46.82296 | 5.45620 | 28661 ft | 451 kts | 49° |
| 2026-04-23 07:57 | 46.84285 | 5.49212 | 28984 ft | 454 kts | 50° |
| 2026-04-23 07:58 | 46.86278 | 5.52818 | 29370 ft | 456 kts | 50° |
| 2026-04-23 07:58 | 46.88251 | 5.56392 | 29718 ft | 457 kts | 50° |
| 2026-04-23 07:58 | 46.90257 | 5.60030 | 30155 ft | 457 kts | 50° |
| 2026-04-23 07:58 | 46.92255 | 5.63657 | 30583 ft | 457 kts | 50° |
| 2026-04-23 07:59 | 46.94230 | 5.67248 | 30962 ft | 456 kts | 50° |
| 2026-04-23 07:59 | 46.96223 | 5.70878 | 31356 ft | 455 kts | 50° |
| 2026-04-23 07:59 | 46.98195 | 5.74472 | 31741 ft | 455 kts | 50° |
| 2026-04-23 07:59 | 47.00179 | 5.78094 | 32179 ft | 452 kts | 51° |
| 2026-04-23 08:00 | 47.02145 | 5.81688 | 32586 ft | 451 kts | 51° |
| 2026-04-23 08:00 | 47.04093 | 5.85251 | 32940 ft | 451 kts | 51° |
| 2026-04-23 08:00 | 47.06054 | 5.88846 | 33308 ft | 450 kts | 51° |
| 2026-04-23 08:00 | 47.08022 | 5.92458 | 33643 ft | 451 kts | 51° |
| 2026-04-23 08:01 | 47.09953 | 5.96008 | 33965 ft | 451 kts | 51° |
| 2026-04-23 08:01 | 47.11910 | 5.99607 | 34297 ft | 451 kts | 50° |
| 2026-04-23 08:01 | 47.13887 | 6.03250 | 34573 ft | 451 kts | 50° |
| 2026-04-23 08:01 | 47.15817 | 6.06811 | 34878 ft | 450 kts | 50° |
| 2026-04-23 08:02 | 47.17776 | 6.10431 | 35179 ft | 450 kts | 50° |
| 2026-04-23 08:02 | 47.19727 | 6.14038 | 35483 ft | 449 kts | 50° |
| 2026-04-23 08:02 | 47.21665 | 6.17628 | 35780 ft | 449 kts | 50° |
| 2026-04-23 08:02 | 47.23584 | 6.21187 | 36099 ft | 446 kts | 51° |
| 2026-04-23 08:03 | 47.25518 | 6.24778 | 36335 ft | 445 kts | 51° |
| 2026-04-23 08:03 | 47.29321 | 6.31853 | 36300 ft | 439 kts | 51° |
| 2026-04-23 08:04 | 47.33122 | 6.38944 | 36307 ft | 440 kts | 52° |
| 2026-04-23 08:04 | 47.36911 | 6.46030 | 36308 ft | 440 kts | 52° |
| 2026-04-23 08:05 | 47.40687 | 6.53110 | 36310 ft | 440 kts | 52° |
| 2026-04-23 08:05 | 47.44459 | 6.60200 | 36351 ft | 440 kts | 52° |
| 2026-04-23 08:06 | 47.48221 | 6.67291 | 36353 ft | 440 kts | 52° |
| 2026-04-23 08:06 | 47.52009 | 6.74447 | 36342 ft | 438 kts | 53° |
| 2026-04-23 08:07 | 47.55737 | 6.81510 | 36342 ft | 438 kts | 53° |
| 2026-04-23 08:07 | 47.59489 | 6.88637 | 36340 ft | 438 kts | 53° |
| 2026-04-23 08:08 | 47.63208 | 6.95720 | 36339 ft | 437 kts | 54° |
| 2026-04-23 08:08 | 47.66944 | 7.02854 | 36334 ft | 437 kts | 54° |
| 2026-04-23 08:09 | 47.70660 | 7.09967 | 36344 ft | 437 kts | 54° |
| 2026-04-23 08:09 | 47.74388 | 7.17122 | 36350 ft | 437 kts | 54° |
| 2026-04-23 08:10 | 47.78085 | 7.24238 | 36333 ft | 435 kts | 55° |
| 2026-04-23 08:10 | 47.83618 | 7.34920 | 36356 ft | 434 kts | 55° |
| 2026-04-23 08:11 | 47.87306 | 7.42065 | 36359 ft | 434 kts | 55° |
| 2026-04-23 08:11 | 47.90988 | 7.49214 | 36358 ft | 434 kts | 56° |
| 2026-04-23 08:12 | 47.94644 | 7.56332 | 36349 ft | 434 kts | 56° |
| 2026-04-23 08:12 | 47.98318 | 7.63506 | 36341 ft | 434 kts | 56° |
| 2026-04-23 08:13 | 48.01973 | 7.70661 | 36343 ft | 432 kts | 56° |
| 2026-04-23 08:13 | 48.05601 | 7.77782 | 36347 ft | 431 kts | 56° |
| 2026-04-23 08:14 | 48.09236 | 7.84934 | 36359 ft | 431 kts | 56° |
| 2026-04-23 08:14 | 48.12855 | 7.92069 | 36356 ft | 431 kts | 56° |
| 2026-04-23 08:15 | 48.16465 | 7.99206 | 36357 ft | 431 kts | 56° |
| 2026-04-23 08:15 | 48.20087 | 8.06382 | 36354 ft | 429 kts | 56° |
| 2026-04-23 08:16 | 48.23756 | 8.13446 | 36338 ft | 432 kts | 48° |
| 2026-04-23 08:16 | 48.26127 | 8.16192 | 36361 ft | 439 kts | 33° |
| 2026-04-23 08:16 | 48.28881 | 8.18259 | 36359 ft | 444 kts | 30° |
| 2026-04-23 08:17 | 48.34437 | 8.22262 | 36365 ft | 444 kts | 30° |
| 2026-04-23 08:17 | 48.40012 | 8.26215 | 36355 ft | 443 kts | 30° |
| 2026-04-23 08:18 | 48.45606 | 8.30178 | 36353 ft | 443 kts | 30° |
| 2026-04-23 08:18 | 48.51174 | 8.34132 | 36354 ft | 442 kts | 30° |
| 2026-04-23 08:19 | 48.56706 | 8.38070 | 36363 ft | 443 kts | 30° |
| 2026-04-23 08:19 | 48.62286 | 8.42052 | 36369 ft | 442 kts | 30° |
| 2026-04-23 08:20 | 48.67844 | 8.46027 | 36357 ft | 442 kts | 30° |
| 2026-04-23 08:20 | 48.73391 | 8.50005 | 36364 ft | 442 kts | 30° |
| 2026-04-23 08:21 | 48.78931 | 8.53987 | 36352 ft | 442 kts | 30° |
| 2026-04-23 08:21 | 48.84488 | 8.57991 | 36355 ft | 442 kts | 30° |
| 2026-04-23 08:22 | 48.90058 | 8.62015 | 36367 ft | 442 kts | 30° |
| 2026-04-23 08:22 | 48.95596 | 8.66025 | 36370 ft | 441 kts | 30° |
| 2026-04-23 08:23 | 49.01137 | 8.70047 | 36369 ft | 441 kts | 30° |
| 2026-04-23 08:23 | 49.06657 | 8.74065 | 36373 ft | 441 kts | 30° |
| 2026-04-23 08:24 | 49.12200 | 8.78109 | 36373 ft | 441 kts | 30° |
| 2026-04-23 08:24 | 49.17691 | 8.82124 | 36372 ft | 441 kts | 30° |
| 2026-04-23 08:25 | 49.23249 | 8.86200 | 36379 ft | 439 kts | 30° |
| 2026-04-23 08:25 | 49.28730 | 8.90228 | 36383 ft | 439 kts | 30° |
| 2026-04-23 08:26 | 49.34205 | 8.94262 | 36380 ft | 436 kts | 30° |
| 2026-04-23 08:26 | 49.39657 | 8.98290 | 36373 ft | 436 kts | 30° |
| 2026-04-23 08:27 | 49.45141 | 9.02351 | 36366 ft | 436 kts | 30° |
| 2026-04-23 08:27 | 49.50600 | 9.06404 | 36376 ft | 436 kts | 30° |
| 2026-04-23 08:28 | 49.56054 | 9.10462 | 36367 ft | 436 kts | 30° |
| 2026-04-23 08:28 | 49.61498 | 9.14524 | 36362 ft | 436 kts | 30° |
| 2026-04-23 08:29 | 49.66919 | 9.18578 | 36366 ft | 434 kts | 30° |
| 2026-04-23 08:29 | 49.72382 | 9.22674 | 36375 ft | 435 kts | 30° |
| 2026-04-23 08:30 | 49.77819 | 9.26761 | 36370 ft | 434 kts | 31° |
| 2026-04-23 08:30 | 49.83250 | 9.30854 | 36361 ft | 434 kts | 31° |
| 2026-04-23 08:31 | 49.88658 | 9.34939 | 36375 ft | 435 kts | 31° |
| 2026-04-23 08:31 | 49.94086 | 9.39049 | 36371 ft | 434 kts | 31° |
| 2026-04-23 08:32 | 49.99539 | 9.43187 | 36371 ft | 434 kts | 31° |
| 2026-04-23 08:32 | 50.04939 | 9.47294 | 36364 ft | 434 kts | 31° |
| 2026-04-23 08:33 | 50.09952 | 9.52317 | 36371 ft | 429 kts | 39° |
| 2026-04-23 08:33 | 50.14819 | 9.57749 | 36366 ft | 429 kts | 40° |
| 2026-04-23 08:34 | 50.19647 | 9.63178 | 36367 ft | 429 kts | 40° |
| 2026-04-23 08:34 | 50.24475 | 9.68623 | 36374 ft | 429 kts | 40° |
| 2026-04-23 08:35 | 50.29297 | 9.74075 | 36359 ft | 426 kts | 40° |
| 2026-04-23 08:35 | 50.34087 | 9.79504 | 36358 ft | 427 kts | 40° |
| 2026-04-23 08:36 | 50.38878 | 9.84948 | 36383 ft | 427 kts | 40° |
| 2026-04-23 08:36 | 50.43700 | 9.90433 | 36375 ft | 427 kts | 40° |
| 2026-04-23 08:37 | 50.48489 | 9.95891 | 36366 ft | 426 kts | 40° |
| 2026-04-23 08:37 | 50.53264 | 10.01347 | 36379 ft | 425 kts | 40° |
| 2026-04-23 08:38 | 50.58059 | 10.06840 | 36376 ft | 425 kts | 40° |
| 2026-04-23 08:38 | 50.62841 | 10.12333 | 36369 ft | 425 kts | 40° |
| 2026-04-23 08:39 | 50.67607 | 10.17820 | 36355 ft | 425 kts | 40° |
| 2026-04-23 08:39 | 50.72387 | 10.23285 | 36358 ft | 426 kts | 39° |
| 2026-04-23 08:40 | 50.77222 | 10.28713 | 36367 ft | 426 kts | 39° |
| 2026-04-23 08:40 | 50.81233 | 10.33237 | 36362 ft | 426 kts | 39° |
| 2026-04-23 08:41 | 50.86065 | 10.38701 | 36363 ft | 425 kts | 39° |
| 2026-04-23 08:41 | 50.90853 | 10.44130 | 36353 ft | 423 kts | 39° |
| 2026-04-23 08:42 | 50.95653 | 10.49586 | 36356 ft | 424 kts | 39° |
| 2026-04-23 08:42 | 51.00430 | 10.55030 | 36349 ft | 423 kts | 39° |
| 2026-04-23 08:43 | 51.05219 | 10.60502 | 36348 ft | 423 kts | 39° |
| 2026-04-23 08:43 | 51.09973 | 10.65947 | 36341 ft | 423 kts | 39° |
| 2026-04-23 08:44 | 51.14739 | 10.71422 | 36341 ft | 423 kts | 39° |
| 2026-04-23 08:44 | 51.19512 | 10.76919 | 36340 ft | 423 kts | 39° |
| 2026-04-23 08:45 | 51.24293 | 10.82440 | 36340 ft | 423 kts | 39° |
| 2026-04-23 08:45 | 51.29059 | 10.87957 | 36336 ft | 423 kts | 39° |
| 2026-04-23 08:46 | 51.33796 | 10.93455 | 36331 ft | 422 kts | 39° |
| 2026-04-23 08:46 | 51.38567 | 10.99006 | 36327 ft | 422 kts | 39° |
| 2026-04-23 08:47 | 51.43290 | 11.04517 | 36316 ft | 422 kts | 39° |
| 2026-04-23 08:47 | 51.48041 | 11.10075 | 36318 ft | 422 kts | 39° |
| 2026-04-23 08:48 | 51.52766 | 11.15616 | 36314 ft | 417 kts | 39° |
| 2026-04-23 08:48 | 51.57431 | 11.21103 | 36317 ft | 417 kts | 39° |
| 2026-04-23 08:49 | 51.62392 | 11.25945 | 36299 ft | 423 kts | 20° |
| 2026-04-23 08:49 | 51.68243 | 11.27543 | 36306 ft | 430 kts | 12° |
| 2026-04-23 08:50 | 51.74171 | 11.28785 | 36306 ft | 431 kts | 12° |
| 2026-04-23 08:50 | 51.80097 | 11.29951 | 36320 ft | 430 kts | 11° |
| 2026-04-23 08:51 | 51.86033 | 11.31108 | 36319 ft | 430 kts | 11° |
| 2026-04-23 08:51 | 51.91962 | 11.32265 | 36325 ft | 430 kts | 11° |
| 2026-04-23 08:52 | 51.97905 | 11.33428 | 36306 ft | 430 kts | 11° |
| 2026-04-23 08:52 | 52.03862 | 11.34597 | 36320 ft | 430 kts | 11° |
| 2026-04-23 08:53 | 52.09783 | 11.35761 | 36308 ft | 429 kts | 11° |
| 2026-04-23 08:53 | 52.15733 | 11.36936 | 36322 ft | 434 kts | 11° |
| 2026-04-23 08:54 | 52.21715 | 11.38120 | 36310 ft | 434 kts | 11° |
| 2026-04-23 08:54 | 52.27716 | 11.39311 | 36320 ft | 432 kts | 11° |
| 2026-04-23 08:55 | 52.33683 | 11.40498 | 36308 ft | 432 kts | 11° |
| 2026-04-23 08:55 | 52.39657 | 11.41690 | 36315 ft | 432 kts | 11° |
| 2026-04-23 08:56 | 52.45598 | 11.42879 | 36300 ft | 433 kts | 11° |
| 2026-04-23 08:56 | 52.51576 | 11.44078 | 36296 ft | 431 kts | 11° |
| 2026-04-23 08:57 | 52.57547 | 11.45279 | 36307 ft | 431 kts | 11° |
| 2026-04-23 08:57 | 52.63469 | 11.46474 | 36299 ft | 431 kts | 11° |
| 2026-04-23 08:58 | 52.69442 | 11.47682 | 36310 ft | 431 kts | 11° |
| 2026-04-23 08:58 | 52.75370 | 11.48884 | 36304 ft | 430 kts | 11° |
| 2026-04-23 08:59 | 52.81315 | 11.50094 | 36305 ft | 430 kts | 11° |
| 2026-04-23 08:59 | 52.87280 | 11.51310 | 36288 ft | 430 kts | 11° |
| 2026-04-23 09:00 | 52.93202 | 11.52521 | 36289 ft | 430 kts | 11° |
| 2026-04-23 09:00 | 52.99135 | 11.53738 | 36294 ft | 430 kts | 11° |
| 2026-04-23 09:01 | 53.05085 | 11.54962 | 36298 ft | 430 kts | 11° |
| 2026-04-23 09:01 | 53.10988 | 11.56179 | 36296 ft | 430 kts | 11° |
| 2026-04-23 09:02 | 53.16938 | 11.57410 | 36292 ft | 430 kts | 11° |
| 2026-04-23 09:02 | 53.22853 | 11.58636 | 36292 ft | 428 kts | 11° |
| 2026-04-23 09:03 | 53.28618 | 11.60858 | 36284 ft | 424 kts | 19° |
| 2026-04-23 09:03 | 53.34243 | 11.63626 | 36297 ft | 424 kts | 19° |
| 2026-04-23 09:04 | 53.39907 | 11.66441 | 36289 ft | 424 kts | 19° |
| 2026-04-23 09:04 | 53.45542 | 11.69252 | 36289 ft | 423 kts | 19° |
| 2026-04-23 09:05 | 53.51170 | 11.72068 | 36288 ft | 422 kts | 19° |
| 2026-04-23 09:05 | 53.56820 | 11.74902 | 36277 ft | 422 kts | 19° |
| 2026-04-23 09:06 | 53.62422 | 11.77720 | 36269 ft | 422 kts | 19° |
| 2026-04-23 09:06 | 53.68060 | 11.80564 | 36274 ft | 422 kts | 19° |
| 2026-04-23 09:07 | 53.73700 | 11.83418 | 36273 ft | 422 kts | 19° |
| 2026-04-23 09:07 | 53.79313 | 11.86265 | 36280 ft | 422 kts | 19° |
| 2026-04-23 09:08 | 53.84950 | 11.89133 | 36282 ft | 422 kts | 19° |
| 2026-04-23 09:08 | 53.90551 | 11.91990 | 36282 ft | 422 kts | 19° |
| 2026-04-23 09:09 | 53.96188 | 11.94874 | 36276 ft | 422 kts | 19° |
| 2026-04-23 09:09 | 54.01787 | 11.97747 | 36276 ft | 422 kts | 19° |
| 2026-04-23 09:10 | 54.10212 | 12.02085 | 34993 ft | 421 kts | 19° |
| 2026-04-23 09:10 | 54.12990 | 12.03519 | 34324 ft | 421 kts | 19° |
| 2026-04-23 09:11 | 54.15804 | 12.04973 | 33505 ft | 422 kts | 19° |
| 2026-04-23 09:11 | 54.18627 | 12.06434 | 32685 ft | 423 kts | 19° |
| 2026-04-23 09:11 | 54.21452 | 12.07899 | 31910 ft | 424 kts | 18° |
| 2026-04-23 09:11 | 54.24283 | 12.09368 | 31134 ft | 424 kts | 18° |
| 2026-04-23 09:12 | 54.27114 | 12.10841 | 30298 ft | 426 kts | 18° |
| 2026-04-23 09:12 | 54.29933 | 12.12310 | 29304 ft | 429 kts | 18° |
| 2026-04-23 09:12 | 54.32804 | 12.13807 | 28406 ft | 430 kts | 18° |
| 2026-04-23 09:12 | 54.35657 | 12.15297 | 27494 ft | 431 kts | 18° |
| 2026-04-23 09:13 | 54.38535 | 12.16802 | 26678 ft | 429 kts | 18° |
| 2026-04-23 09:13 | 54.41404 | 12.18304 | 25971 ft | 434 kts | 17° |
| 2026-04-23 09:13 | 54.44272 | 12.19809 | 25249 ft | 436 kts | 17° |
| 2026-04-23 09:13 | 54.47200 | 12.21348 | 24537 ft | 438 kts | 17° |
| 2026-04-23 09:14 | 54.50075 | 12.22860 | 23828 ft | 434 kts | 17° |
| 2026-04-23 09:14 | 54.52976 | 12.24388 | 22997 ft | 431 kts | 17° |
| 2026-04-23 09:14 | 54.55844 | 12.25902 | 22264 ft | 427 kts | 17° |
| 2026-04-23 09:14 | 54.58646 | 12.27383 | 21571 ft | 423 kts | 17° |
| 2026-04-23 09:15 | 54.61504 | 12.28522 | 20766 ft | 421 kts | 6° |
| 2026-04-23 09:15 | 54.64396 | 12.28792 | 20118 ft | 417 kts | 4° |
| 2026-04-23 09:15 | 54.67293 | 12.29059 | 19487 ft | 411 kts | 4° |
| 2026-04-23 09:15 | 54.70130 | 12.29308 | 18849 ft | 408 kts | 3° |
| 2026-04-23 09:16 | 54.72960 | 12.29549 | 18221 ft | 402 kts | 3° |
| 2026-04-23 09:16 | 54.75746 | 12.29784 | 17377 ft | 403 kts | 3° |
| 2026-04-23 09:16 | 54.78538 | 12.30018 | 16811 ft | 396 kts | 2° |
| 2026-04-23 09:16 | 54.81256 | 12.30246 | 16259 ft | 390 kts | 2° |
| 2026-04-23 09:17 | 54.83971 | 12.30473 | 15461 ft | 391 kts | 2° |
| 2026-04-23 09:17 | 54.86646 | 12.30697 | 14931 ft | 385 kts | 2° |
| 2026-04-23 09:17 | 54.89309 | 12.30920 | 14428 ft | 379 kts | 2° |
| 2026-04-23 09:17 | 54.91939 | 12.31140 | 13702 ft | 379 kts | 2° |
| 2026-04-23 09:18 | 54.94492 | 12.31929 | 13112 ft | 371 kts | 17° |
| 2026-04-23 09:18 | 54.96773 | 12.34046 | 12385 ft | 372 kts | 31° |
| 2026-04-23 09:18 | 54.98915 | 12.36517 | 12043 ft | 364 kts | 30° |
| 2026-04-23 09:18 | 55.00975 | 12.38896 | 11823 ft | 353 kts | 30° |
| 2026-04-23 09:19 | 55.02992 | 12.41234 | 11641 ft | 341 kts | 30° |
| 2026-04-23 09:19 | 55.04924 | 12.43485 | 11464 ft | 331 kts | 30° |
| 2026-04-23 09:19 | 55.06811 | 12.45688 | 11302 ft | 321 kts | 30° |
| 2026-04-23 09:19 | 55.08637 | 12.47825 | 11126 ft | 311 kts | 30° |
| 2026-04-23 09:20 | 55.10389 | 12.49877 | 10969 ft | 302 kts | 30° |
| 2026-04-23 09:20 | 55.12113 | 12.51899 | 10802 ft | 293 kts | 30° |
| 2026-04-23 09:20 | 55.13788 | 12.53865 | 10666 ft | 284 kts | 30° |
| 2026-04-23 09:20 | 55.15393 | 12.55751 | 10529 ft | 276 kts | 30° |
| 2026-04-23 09:21 | 55.16970 | 12.57606 | 10385 ft | 268 kts | 30° |
| 2026-04-23 09:21 | 55.18490 | 12.59395 | 10177 ft | 263 kts | 30° |
| 2026-04-23 09:21 | 55.20012 | 12.61189 | 9843 ft | 262 kts | 30° |
| 2026-04-23 09:21 | 55.21508 | 12.62953 | 9520 ft | 261 kts | 30° |
| 2026-04-23 09:22 | 55.23019 | 12.64728 | 9212 ft | 258 kts | 28° |
| 2026-04-23 09:22 | 55.24569 | 12.66243 | 8918 ft | 255 kts | 25° |
| 2026-04-23 09:22 | 55.26101 | 12.67709 | 8661 ft | 251 kts | 25° |
| 2026-04-23 09:22 | 55.27621 | 12.69176 | 8431 ft | 246 kts | 25° |
| 2026-04-23 09:23 | 55.29107 | 12.70620 | 8188 ft | 243 kts | 25° |
| 2026-04-23 09:23 | 55.30572 | 12.72049 | 7936 ft | 239 kts | 25° |
| 2026-04-23 09:23 | 55.32022 | 12.73466 | 7681 ft | 237 kts | 25° |
| 2026-04-23 09:23 | 55.33478 | 12.74648 | 7389 ft | 229 kts | 9° |
| 2026-04-23 09:24 | 55.35011 | 12.74423 | 7051 ft | 220 kts | 338° |
| 2026-04-23 09:24 | 55.36196 | 12.72794 | 6774 ft | 217 kts | 311° |
| 2026-04-23 09:24 | 55.36879 | 12.70483 | 6560 ft | 210 kts | 301° |
| 2026-04-23 09:24 | 55.37474 | 12.68177 | 6374 ft | 205 kts | 301° |
| 2026-04-23 09:25 | 55.38052 | 12.65918 | 6178 ft | 203 kts | 301° |
| 2026-04-23 09:25 | 55.38632 | 12.63631 | 5919 ft | 203 kts | 300° |
| 2026-04-23 09:25 | 55.39196 | 12.61386 | 5646 ft | 203 kts | 300° |
| 2026-04-23 09:25 | 55.39765 | 12.59111 | 5321 ft | 203 kts | 300° |
| 2026-04-23 09:26 | 55.40330 | 12.56846 | 4999 ft | 200 kts | 300° |
| 2026-04-23 09:26 | 55.40881 | 12.54632 | 4702 ft | 195 kts | 299° |
| 2026-04-23 09:26 | 55.41417 | 12.52473 | 4432 ft | 189 kts | 300° |
| 2026-04-23 09:26 | 55.42040 | 12.50597 | 4227 ft | 172 kts | 314° |
| 2026-04-23 09:27 | 55.42793 | 12.49043 | 3994 ft | 160 kts | 315° |
| 2026-04-23 09:27 | 55.43516 | 12.47567 | 3811 ft | 159 kts | 315° |
| 2026-04-23 09:27 | 55.44232 | 12.46111 | 3661 ft | 159 kts | 315° |
| 2026-04-23 09:27 | 55.44956 | 12.44644 | 3506 ft | 159 kts | 315° |
| 2026-04-23 09:28 | 55.45710 | 12.43220 | 3316 ft | 156 kts | 326° |
| 2026-04-23 09:28 | 55.46704 | 12.42647 | 3083 ft | 149 kts | 358° |
| 2026-04-23 09:28 | 55.47685 | 12.43108 | 2942 ft | 150 kts | 24° |
| 2026-04-23 09:28 | 55.48555 | 12.44143 | 2776 ft | 152 kts | 30° |
| 2026-04-23 09:29 | 55.49403 | 12.45279 | 2549 ft | 152 kts | 32° |
| 2026-04-23 09:29 | 55.50206 | 12.46472 | 2315 ft | 153 kts | 34° |
| 2026-04-23 09:29 | 55.51012 | 12.47712 | 2142 ft | 154 kts | 35° |
| 2026-04-23 09:29 | 55.51821 | 12.48958 | 1943 ft | 155 kts | 35° |
| 2026-04-23 09:30 | 55.52636 | 12.50213 | 1751 ft | 155 kts | 36° |
| 2026-04-23 09:30 | 55.53452 | 12.51469 | 1548 ft | 153 kts | 36° |
| 2026-04-23 09:30 | 55.54237 | 12.52678 | 1339 ft | 148 kts | 36° |
| 2026-04-23 09:30 | 55.55003 | 12.53857 | 1141 ft | 147 kts | 36° |
| 2026-04-23 09:31 | 55.55774 | 12.55045 | 949 ft | 146 kts | 37° |
| 2026-04-23 09:31 | 55.56543 | 12.56233 | 759 ft | 146 kts | 36° |
| 2026-04-23 09:31 | 55.57302 | 12.57403 | 546 ft | 145 kts | 38° |
| 2026-04-23 09:31 | 55.58069 | 12.58571 | 371 ft | 145 kts | 37° |
| 2026-04-23 09:32 | 55.58821 | 12.59740 | 151 ft | 143 kts | 38° |
| 2026-04-23 09:32 | 55.59317 | 12.60492 | 28 ft | 138 kts | 40° |
| 2026-04-23 09:32 | 55.59972 | 12.61510 | 27 ft | 50 kts | 41° |
| 2026-04-23 09:32 | 55.60091 | 12.61698 | 28 ft | 28 kts | 42° |
| 2026-04-23 09:33 | 55.60249 | 12.61935 | 27 ft | 31 kts | 42° |
| 2026-04-23 09:33 | 55.60419 | 12.62193 | 26 ft | 32 kts | 33° |
| 2026-04-23 09:33 | 55.60707 | 12.62371 | 27 ft | 35 kts | 13° |
| 2026-04-23 09:33 | 55.60857 | 12.62502 | 26 ft | 37 kts | 38° |
| 2026-04-23 09:34 | 55.61054 | 12.62804 | 29 ft | 39 kts | 41° |
| 2026-04-23 09:34 | 55.61259 | 12.63124 | 26 ft | 41 kts | 41° |
| 2026-04-23 09:34 | 55.61478 | 12.63461 | 26 ft | 42 kts | 41° |
| 2026-04-23 09:34 | 55.61702 | 12.63810 | 26 ft | 44 kts | 40° |
| 2026-04-23 09:35 | 55.61950 | 12.64132 | 27 ft | 44 kts | 26° |
| 2026-04-23 09:35 | 55.62220 | 12.64362 | 26 ft | 37 kts | 36° |
| 2026-04-23 09:35 | 55.62329 | 12.64716 | 26 ft | 23 kts | 56° |
| 2026-04-23 09:35 | 55.62374 | 12.64776 | 28 ft | 0 kts | 31° |
| 2026-04-23 09:36 | 55.62375 | 12.64777 | 28 ft | 1 kts | 31° |
| 2026-04-23 09:36 | 55.62401 | 12.64806 | 27 ft | 9 kts | 34° |
| 2026-04-23 09:36 | 55.62422 | 12.64895 | 26 ft | 1 kts | 88° |
| 2026-04-23 09:36 | 55.62422 | 12.64900 | 26 ft | 0 kts | 88° |